sensor_id;sensor_type;location;lat;lon;timestamp;P1;durP1;ratioP1;P2;durP2;ratioP2
25331;SDS011;13284;52.748;13.452;2023-05-28T00:02:17;2.97;;;2.47;;
25331;SDS011;13284;52.748;13.452;2023-05-28T00:04:43;3.87;;;2.87;;
25331;SDS011;13284;52.748;13.452;2023-05-28T00:07:08;4.10;;;2.97;;
25331;SDS011;13284;52.748;13.452;2023-05-28T00:09:35;3.43;;;2.53;;
25331;SDS011;13284;52.748;13.452;2023-05-28T00:12:01;3.83;;;2.80;;
25331;SDS011;13284;52.748;13.452;2023-05-28T00:14:27;3.97;;;2.70;;
25331;SDS011;13284;52.748;13.452;2023-05-28T00:16:53;4.00;;;2.27;;
25331;SDS011;13284;52.748;13.452;2023-05-28T00:19:20;2.97;;;2.60;;
25331;SDS011;13284;52.748;13.452;2023-05-28T00:21:47;4.87;;;3.93;;
25331;SDS011;13284;52.748;13.452;2023-05-28T00:24:12;3.40;;;2.43;;
25331;SDS011;13284;52.748;13.452;2023-05-28T00:26:38;2.73;;;2.43;;
25331;SDS011;13284;52.748;13.452;2023-05-28T00:29:03;5.30;;;2.67;;
25331;SDS011;13284;52.748;13.452;2023-05-28T00:31:29;4.20;;;2.57;;
25331;SDS011;13284;52.748;13.452;2023-05-28T00:33:54;2.90;;;2.23;;
25331;SDS011;13284;52.748;13.452;2023-05-28T00:36:21;4.10;;;2.57;;
25331;SDS011;13284;52.748;13.452;2023-05-28T00:38:47;4.50;;;2.57;;
25331;SDS011;13284;52.748;13.452;2023-05-28T00:41:13;3.10;;;2.60;;
25331;SDS011;13284;52.748;13.452;2023-05-28T00:43:44;3.83;;;2.80;;
25331;SDS011;13284;52.748;13.452;2023-05-28T00:46:09;3.60;;;2.83;;
25331;SDS011;13284;52.748;13.452;2023-05-28T00:48:35;2.60;;;2.27;;
25331;SDS011;13284;52.748;13.452;2023-05-28T00:51:01;2.97;;;2.70;;
25331;SDS011;13284;52.748;13.452;2023-05-28T00:53:27;3.57;;;2.83;;
25331;SDS011;13284;52.748;13.452;2023-05-28T00:55:53;5.00;;;2.77;;
25331;SDS011;13284;52.748;13.452;2023-05-28T00:58:19;4.50;;;2.40;;
25331;SDS011;13284;52.748;13.452;2023-05-28T01:00:45;2.83;;;2.33;;
25331;SDS011;13284;52.748;13.452;2023-05-28T01:03:14;3.10;;;2.80;;
25331;SDS011;13284;52.748;13.452;2023-05-28T01:05:39;2.77;;;2.37;;
25331;SDS011;13284;52.748;13.452;2023-05-28T01:08:05;6.40;;;2.90;;
25331;SDS011;13284;52.748;13.452;2023-05-28T01:10:32;4.47;;;3.30;;
25331;SDS011;13284;52.748;13.452;2023-05-28T01:13:02;3.67;;;2.47;;
25331;SDS011;13284;52.748;13.452;2023-05-28T01:15:30;5.10;;;3.47;;
25331;SDS011;13284;52.748;13.452;2023-05-28T01:17:56;4.30;;;3.17;;
25331;SDS011;13284;52.748;13.452;2023-05-28T01:20:28;3.73;;;2.90;;
25331;SDS011;13284;52.748;13.452;2023-05-28T01:22:55;3.93;;;3.00;;
25331;SDS011;13284;52.748;13.452;2023-05-28T01:25:25;3.87;;;2.77;;
25331;SDS011;13284;52.748;13.452;2023-05-28T01:27:51;5.43;;;2.80;;
25331;SDS011;13284;52.748;13.452;2023-05-28T01:30:18;3.40;;;2.53;;
25331;SDS011;13284;52.748;13.452;2023-05-28T01:32:44;5.40;;;3.03;;
25331;SDS011;13284;52.748;13.452;2023-05-28T01:35:09;3.63;;;2.60;;
25331;SDS011;13284;52.748;13.452;2023-05-28T01:37:39;5.00;;;2.90;;
25331;SDS011;13284;52.748;13.452;2023-05-28T01:40:08;4.37;;;2.43;;
25331;SDS011;13284;52.748;13.452;2023-05-28T01:42:35;4.13;;;3.07;;
25331;SDS011;13284;52.748;13.452;2023-05-28T01:45:02;4.67;;;3.00;;
25331;SDS011;13284;52.748;13.452;2023-05-28T01:47:31;4.40;;;3.40;;
25331;SDS011;13284;52.748;13.452;2023-05-28T01:49:57;3.93;;;2.93;;
25331;SDS011;13284;52.748;13.452;2023-05-28T01:52:22;4.00;;;2.90;;
25331;SDS011;13284;52.748;13.452;2023-05-28T01:54:48;3.90;;;2.87;;
25331;SDS011;13284;52.748;13.452;2023-05-28T01:57:13;3.43;;;2.97;;
25331;SDS011;13284;52.748;13.452;2023-05-28T01:59:40;7.10;;;3.77;;
25331;SDS011;13284;52.748;13.452;2023-05-28T02:02:05;4.33;;;3.13;;
25331;SDS011;13284;52.748;13.452;2023-05-28T02:04:31;5.13;;;3.17;;
25331;SDS011;13284;52.748;13.452;2023-05-28T02:06:57;2.80;;;2.60;;
25331;SDS011;13284;52.748;13.452;2023-05-28T02:09:23;3.20;;;2.93;;
25331;SDS011;13284;52.748;13.452;2023-05-28T02:11:48;4.43;;;2.80;;
25331;SDS011;13284;52.748;13.452;2023-05-28T02:14:14;4.80;;;3.10;;
25331;SDS011;13284;52.748;13.452;2023-05-28T02:16:46;4.03;;;3.10;;
25331;SDS011;13284;52.748;13.452;2023-05-28T02:19:17;6.87;;;2.90;;
25331;SDS011;13284;52.748;13.452;2023-05-28T02:21:43;4.70;;;3.27;;
25331;SDS011;13284;52.748;13.452;2023-05-28T02:24:09;3.43;;;2.70;;
25331;SDS011;13284;52.748;13.452;2023-05-28T02:26:35;3.00;;;2.70;;
25331;SDS011;13284;52.748;13.452;2023-05-28T02:29:00;4.10;;;2.83;;
25331;SDS011;13284;52.748;13.452;2023-05-28T02:31:26;3.80;;;2.83;;
25331;SDS011;13284;52.748;13.452;2023-05-28T02:33:51;2.90;;;2.60;;
25331;SDS011;13284;52.748;13.452;2023-05-28T02:36:17;3.40;;;2.63;;
25331;SDS011;13284;52.748;13.452;2023-05-28T02:38:42;7.30;;;3.20;;
25331;SDS011;13284;52.748;13.452;2023-05-28T02:41:09;3.50;;;2.90;;
25331;SDS011;13284;52.748;13.452;2023-05-28T02:43:35;3.77;;;2.87;;
25331;SDS011;13284;52.748;13.452;2023-05-28T02:46:00;3.23;;;2.63;;
25331;SDS011;13284;52.748;13.452;2023-05-28T02:48:27;4.00;;;2.90;;
25331;SDS011;13284;52.748;13.452;2023-05-28T02:50:52;4.57;;;3.30;;
25331;SDS011;13284;52.748;13.452;2023-05-28T02:53:19;3.47;;;2.70;;
25331;SDS011;13284;52.748;13.452;2023-05-28T02:55:45;4.10;;;2.80;;
25331;SDS011;13284;52.748;13.452;2023-05-28T02:58:11;4.60;;;3.50;;
25331;SDS011;13284;52.748;13.452;2023-05-28T03:00:37;4.13;;;2.97;;
25331;SDS011;13284;52.748;13.452;2023-05-28T03:03:03;5.10;;;2.70;;
25331;SDS011;13284;52.748;13.452;2023-05-28T03:05:28;3.13;;;2.33;;
25331;SDS011;13284;52.748;13.452;2023-05-28T03:07:56;4.23;;;2.70;;
25331;SDS011;13284;52.748;13.452;2023-05-28T03:10:24;4.17;;;2.60;;
25331;SDS011;13284;52.748;13.452;2023-05-28T03:12:50;6.67;;;3.47;;
25331;SDS011;13284;52.748;13.452;2023-05-28T03:15:16;6.30;;;3.50;;
25331;SDS011;13284;52.748;13.452;2023-05-28T03:17:41;5.00;;;3.70;;
25331;SDS011;13284;52.748;13.452;2023-05-28T03:20:07;4.83;;;3.07;;
25331;SDS011;13284;52.748;13.452;2023-05-28T03:22:35;5.00;;;2.80;;
25331;SDS011;13284;52.748;13.452;2023-05-28T03:25:01;5.07;;;3.40;;
25331;SDS011;13284;52.748;13.452;2023-05-28T03:27:33;4.07;;;3.30;;
25331;SDS011;13284;52.748;13.452;2023-05-28T03:29:59;2.77;;;2.50;;
25331;SDS011;13284;52.748;13.452;2023-05-28T03:32:24;3.97;;;3.30;;
25331;SDS011;13284;52.748;13.452;2023-05-28T03:34:49;4.20;;;3.53;;
25331;SDS011;13284;52.748;13.452;2023-05-28T03:37:15;7.63;;;3.53;;
25331;SDS011;13284;52.748;13.452;2023-05-28T03:39:41;3.20;;;2.90;;
25331;SDS011;13284;52.748;13.452;2023-05-28T03:42:06;3.57;;;2.73;;
25331;SDS011;13284;52.748;13.452;2023-05-28T03:44:32;5.40;;;3.30;;
25331;SDS011;13284;52.748;13.452;2023-05-28T03:46:58;6.27;;;3.57;;
25331;SDS011;13284;52.748;13.452;2023-05-28T03:49:24;4.30;;;2.90;;
25331;SDS011;13284;52.748;13.452;2023-05-28T03:51:49;2.77;;;2.57;;
25331;SDS011;13284;52.748;13.452;2023-05-28T03:54:15;7.00;;;3.00;;
25331;SDS011;13284;52.748;13.452;2023-05-28T03:56:40;12.80;;;8.27;;
25331;SDS011;13284;52.748;13.452;2023-05-28T03:59:06;23.40;;;14.77;;
25331;SDS011;13284;52.748;13.452;2023-05-28T04:01:32;12.67;;;9.37;;
25331;SDS011;13284;52.748;13.452;2023-05-28T04:03:59;6.70;;;5.00;;
25331;SDS011;13284;52.748;13.452;2023-05-28T04:06:24;5.27;;;3.70;;
25331;SDS011;13284;52.748;13.452;2023-05-28T04:08:50;3.47;;;3.17;;
25331;SDS011;13284;52.748;13.452;2023-05-28T04:11:17;4.27;;;2.60;;
25331;SDS011;13284;52.748;13.452;2023-05-28T04:13:45;3.53;;;2.80;;
25331;SDS011;13284;52.748;13.452;2023-05-28T04:16:11;3.27;;;2.97;;
25331;SDS011;13284;52.748;13.452;2023-05-28T04:18:38;5.90;;;3.27;;
25331;SDS011;13284;52.748;13.452;2023-05-28T04:21:03;5.20;;;3.83;;
25331;SDS011;13284;52.748;13.452;2023-05-28T04:23:29;6.20;;;3.10;;
25331;SDS011;13284;52.748;13.452;2023-05-28T04:25:55;5.80;;;3.27;;
25331;SDS011;13284;52.748;13.452;2023-05-28T04:28:21;5.67;;;3.40;;
25331;SDS011;13284;52.748;13.452;2023-05-28T04:30:49;4.07;;;2.90;;
25331;SDS011;13284;52.748;13.452;2023-05-28T04:33:17;4.60;;;3.60;;
25331;SDS011;13284;52.748;13.452;2023-05-28T04:35:44;4.10;;;2.90;;
25331;SDS011;13284;52.748;13.452;2023-05-28T04:38:10;27.03;;;18.23;;
25331;SDS011;13284;52.748;13.452;2023-05-28T04:40:36;45.87;;;28.37;;
25331;SDS011;13284;52.748;13.452;2023-05-28T04:43:01;11.50;;;7.57;;
25331;SDS011;13284;52.748;13.452;2023-05-28T04:45:27;4.83;;;3.47;;
25331;SDS011;13284;52.748;13.452;2023-05-28T04:47:52;4.17;;;3.10;;
25331;SDS011;13284;52.748;13.452;2023-05-28T04:50:18;4.93;;;3.40;;
25331;SDS011;13284;52.748;13.452;2023-05-28T04:52:44;5.67;;;3.33;;
25331;SDS011;13284;52.748;13.452;2023-05-28T04:55:10;4.07;;;3.10;;
25331;SDS011;13284;52.748;13.452;2023-05-28T04:57:36;4.00;;;3.30;;
25331;SDS011;13284;52.748;13.452;2023-05-28T05:00:02;5.90;;;3.53;;
25331;SDS011;13284;52.748;13.452;2023-05-28T05:02:28;5.77;;;3.70;;
25331;SDS011;13284;52.748;13.452;2023-05-28T05:04:54;4.50;;;3.80;;
25331;SDS011;13284;52.748;13.452;2023-05-28T05:07:21;3.50;;;3.17;;
25331;SDS011;13284;52.748;13.452;2023-05-28T05:09:53;8.87;;;5.43;;
25331;SDS011;13284;52.748;13.452;2023-05-28T05:12:20;4.97;;;3.70;;
25331;SDS011;13284;52.748;13.452;2023-05-28T05:14:45;6.00;;;3.90;;
25331;SDS011;13284;52.748;13.452;2023-05-28T05:17:11;3.90;;;2.93;;
25331;SDS011;13284;52.748;13.452;2023-05-28T05:19:37;7.27;;;3.80;;
25331;SDS011;13284;52.748;13.452;2023-05-28T05:22:03;7.97;;;4.20;;
25331;SDS011;13284;52.748;13.452;2023-05-28T05:24:29;5.27;;;4.23;;
25331;SDS011;13284;52.748;13.452;2023-05-28T05:26:54;4.50;;;3.70;;
25331;SDS011;13284;52.748;13.452;2023-05-28T05:29:19;4.93;;;3.30;;
25331;SDS011;13284;52.748;13.452;2023-05-28T05:31:45;5.73;;;3.80;;
25331;SDS011;13284;52.748;13.452;2023-05-28T05:34:10;4.97;;;3.10;;
25331;SDS011;13284;52.748;13.452;2023-05-28T05:36:36;4.13;;;3.57;;
25331;SDS011;13284;52.748;13.452;2023-05-28T05:39:04;4.87;;;3.70;;
25331;SDS011;13284;52.748;13.452;2023-05-28T05:41:29;5.50;;;3.70;;
25331;SDS011;13284;52.748;13.452;2023-05-28T05:43:55;3.53;;;3.23;;
25331;SDS011;13284;52.748;13.452;2023-05-28T05:46:20;4.17;;;2.93;;
25331;SDS011;13284;52.748;13.452;2023-05-28T05:48:46;5.83;;;3.30;;
25331;SDS011;13284;52.748;13.452;2023-05-28T05:51:11;7.03;;;3.60;;
25331;SDS011;13284;52.748;13.452;2023-05-28T05:53:42;3.60;;;3.30;;
25331;SDS011;13284;52.748;13.452;2023-05-28T05:56:09;5.13;;;3.40;;
25331;SDS011;13284;52.748;13.452;2023-05-28T05:58:34;4.20;;;3.40;;
25331;SDS011;13284;52.748;13.452;2023-05-28T06:01:00;4.43;;;3.63;;
25331;SDS011;13284;52.748;13.452;2023-05-28T06:03:26;6.03;;;3.40;;
25331;SDS011;13284;52.748;13.452;2023-05-28T06:05:52;4.20;;;2.87;;
25331;SDS011;13284;52.748;13.452;2023-05-28T06:08:18;4.20;;;3.50;;
25331;SDS011;13284;52.748;13.452;2023-05-28T06:10:43;5.27;;;3.00;;
25331;SDS011;13284;52.748;13.452;2023-05-28T06:13:09;3.30;;;3.00;;
25331;SDS011;13284;52.748;13.452;2023-05-28T06:15:35;4.00;;;2.57;;
25331;SDS011;13284;52.748;13.452;2023-05-28T06:18:01;3.73;;;2.73;;
25331;SDS011;13284;52.748;13.452;2023-05-28T06:20:28;4.80;;;3.40;;
25331;SDS011;13284;52.748;13.452;2023-05-28T06:22:54;6.00;;;2.90;;
25331;SDS011;13284;52.748;13.452;2023-05-28T06:25:21;2.80;;;2.50;;
25331;SDS011;13284;52.748;13.452;2023-05-28T06:27:47;6.33;;;2.77;;
25331;SDS011;13284;52.748;13.452;2023-05-28T06:30:13;4.10;;;2.43;;
25331;SDS011;13284;52.748;13.452;2023-05-28T06:32:39;2.87;;;2.40;;
25331;SDS011;13284;52.748;13.452;2023-05-28T06:35:05;3.70;;;2.20;;
25331;SDS011;13284;52.748;13.452;2023-05-28T06:37:31;4.83;;;2.70;;
25331;SDS011;13284;52.748;13.452;2023-05-28T06:39:57;4.47;;;3.80;;
25331;SDS011;13284;52.748;13.452;2023-05-28T06:42:22;4.13;;;2.70;;
25331;SDS011;13284;52.748;13.452;2023-05-28T06:44:48;4.30;;;2.73;;
25331;SDS011;13284;52.748;13.452;2023-05-28T06:47:13;4.20;;;2.90;;
25331;SDS011;13284;52.748;13.452;2023-05-28T06:49:39;3.00;;;2.23;;
25331;SDS011;13284;52.748;13.452;2023-05-28T06:52:07;2.80;;;2.47;;
25331;SDS011;13284;52.748;13.452;2023-05-28T06:54:36;4.33;;;2.43;;
25331;SDS011;13284;52.748;13.452;2023-05-28T06:57:02;3.77;;;2.40;;
25331;SDS011;13284;52.748;13.452;2023-05-28T06:59:27;3.10;;;2.00;;
25331;SDS011;13284;52.748;13.452;2023-05-28T07:01:53;2.70;;;1.87;;
25331;SDS011;13284;52.748;13.452;2023-05-28T07:04:19;4.43;;;2.60;;
25331;SDS011;13284;52.748;13.452;2023-05-28T07:06:45;3.10;;;2.07;;
25331;SDS011;13284;52.748;13.452;2023-05-28T07:09:10;3.47;;;2.60;;
25331;SDS011;13284;52.748;13.452;2023-05-28T07:11:36;3.60;;;2.60;;
25331;SDS011;13284;52.748;13.452;2023-05-28T07:14:01;3.47;;;2.13;;
25331;SDS011;13284;52.748;13.452;2023-05-28T07:16:27;3.73;;;1.87;;
25331;SDS011;13284;52.748;13.452;2023-05-28T07:18:52;2.60;;;1.93;;
25331;SDS011;13284;52.748;13.452;2023-05-28T07:21:18;3.20;;;2.30;;
25331;SDS011;13284;52.748;13.452;2023-05-28T07:23:43;3.60;;;2.03;;
25331;SDS011;13284;52.748;13.452;2023-05-28T07:26:09;2.87;;;1.97;;
25331;SDS011;13284;52.748;13.452;2023-05-28T07:28:35;5.03;;;2.13;;
25331;SDS011;13284;52.748;13.452;2023-05-28T07:31:01;3.77;;;2.90;;
25331;SDS011;13284;52.748;13.452;2023-05-28T07:33:26;3.07;;;2.57;;
25331;SDS011;13284;52.748;13.452;2023-05-28T07:35:52;2.60;;;1.80;;
25331;SDS011;13284;52.748;13.452;2023-05-28T07:38:17;4.87;;;2.20;;
25331;SDS011;13284;52.748;13.452;2023-05-28T07:40:45;3.40;;;2.37;;
25331;SDS011;13284;52.748;13.452;2023-05-28T07:43:11;3.27;;;2.33;;
25331;SDS011;13284;52.748;13.452;2023-05-28T07:45:36;2.57;;;2.03;;
25331;SDS011;13284;52.748;13.452;2023-05-28T07:48:02;3.13;;;2.63;;
25331;SDS011;13284;52.748;13.452;2023-05-28T07:50:28;3.60;;;2.27;;
25331;SDS011;13284;52.748;13.452;2023-05-28T07:52:53;3.73;;;2.80;;
25331;SDS011;13284;52.748;13.452;2023-05-28T07:55:19;2.53;;;2.33;;
25331;SDS011;13284;52.748;13.452;2023-05-28T07:57:44;5.23;;;2.47;;
25331;SDS011;13284;52.748;13.452;2023-05-28T08:00:10;9.33;;;2.90;;
25331;SDS011;13284;52.748;13.452;2023-05-28T08:02:37;3.07;;;2.40;;
25331;SDS011;13284;52.748;13.452;2023-05-28T08:05:03;4.00;;;2.33;;
25331;SDS011;13284;52.748;13.452;2023-05-28T08:07:28;3.90;;;2.03;;
25331;SDS011;13284;52.748;13.452;2023-05-28T08:09:54;3.90;;;2.63;;
25331;SDS011;13284;52.748;13.452;2023-05-28T08:12:20;2.80;;;2.00;;
25331;SDS011;13284;52.748;13.452;2023-05-28T08:14:46;4.47;;;2.10;;
25331;SDS011;13284;52.748;13.452;2023-05-28T08:17:11;3.37;;;1.93;;
25331;SDS011;13284;52.748;13.452;2023-05-28T08:19:37;4.80;;;2.50;;
25331;SDS011;13284;52.748;13.452;2023-05-28T08:22:03;3.70;;;2.93;;
25331;SDS011;13284;52.748;13.452;2023-05-28T08:24:29;3.30;;;2.70;;
25331;SDS011;13284;52.748;13.452;2023-05-28T08:26:55;3.23;;;1.90;;
25331;SDS011;13284;52.748;13.452;2023-05-28T08:29:20;2.90;;;1.83;;
25331;SDS011;13284;52.748;13.452;2023-05-28T08:31:46;4.10;;;2.70;;
25331;SDS011;13284;52.748;13.452;2023-05-28T08:34:11;4.83;;;2.33;;
25331;SDS011;13284;52.748;13.452;2023-05-28T08:36:37;3.33;;;2.50;;
25331;SDS011;13284;52.748;13.452;2023-05-28T08:39:02;5.27;;;2.07;;
25331;SDS011;13284;52.748;13.452;2023-05-28T08:41:29;7.10;;;2.30;;
25331;SDS011;13284;52.748;13.452;2023-05-28T08:43:54;3.53;;;1.90;;
25331;SDS011;13284;52.748;13.452;2023-05-28T08:46:20;4.17;;;2.17;;
25331;SDS011;13284;52.748;13.452;2023-05-28T08:48:45;3.10;;;2.63;;
25331;SDS011;13284;52.748;13.452;2023-05-28T08:51:13;2.33;;;2.13;;
25331;SDS011;13284;52.748;13.452;2023-05-28T08:53:43;2.53;;;1.80;;
25331;SDS011;13284;52.748;13.452;2023-05-28T08:56:11;4.93;;;2.13;;
25331;SDS011;13284;52.748;13.452;2023-05-28T08:58:37;2.43;;;2.20;;
25331;SDS011;13284;52.748;13.452;2023-05-28T09:01:04;3.70;;;3.23;;
25331;SDS011;13284;52.748;13.452;2023-05-28T09:03:33;2.07;;;1.87;;
25331;SDS011;13284;52.748;13.452;2023-05-28T09:09:54;1.97;;;1.60;;
25331;SDS011;13284;52.748;13.452;2023-05-28T09:12:21;2.43;;;2.00;;
25331;SDS011;13284;52.748;13.452;2023-05-28T09:14:49;2.60;;;1.73;;
25331;SDS011;13284;52.748;13.452;2023-05-28T09:18:10;3.47;;;2.37;;
25331;SDS011;13284;52.748;13.452;2023-05-28T09:21:25;3.63;;;1.90;;
25331;SDS011;13284;52.748;13.452;2023-05-28T09:23:56;3.20;;;2.00;;
25331;SDS011;13284;52.748;13.452;2023-05-28T09:26:40;3.30;;;2.07;;
25331;SDS011;13284;52.748;13.452;2023-05-28T09:29:24;5.93;;;2.37;;
25331;SDS011;13284;52.748;13.452;2023-05-28T09:32:02;2.33;;;2.13;;
25331;SDS011;13284;52.748;13.452;2023-05-28T09:34:28;2.17;;;1.93;;
25331;SDS011;13284;52.748;13.452;2023-05-28T09:37:03;3.77;;;2.13;;
25331;SDS011;13284;52.748;13.452;2023-05-28T09:39:41;2.97;;;2.27;;
25331;SDS011;13284;52.748;13.452;2023-05-28T09:42:10;2.50;;;2.00;;
25331;SDS011;13284;52.748;13.452;2023-05-28T09:44:41;2.87;;;2.23;;
25331;SDS011;13284;52.748;13.452;2023-05-28T09:47:19;4.43;;;2.17;;
25331;SDS011;13284;52.748;13.452;2023-05-28T09:49:47;2.23;;;1.70;;
25331;SDS011;13284;52.748;13.452;2023-05-28T09:52:20;3.07;;;1.87;;
25331;SDS011;13284;52.748;13.452;2023-05-28T09:54:49;3.37;;;2.10;;
25331;SDS011;13284;52.748;13.452;2023-05-28T09:57:17;5.33;;;2.13;;
25331;SDS011;13284;52.748;13.452;2023-05-28T09:59:47;2.53;;;2.33;;
25331;SDS011;13284;52.748;13.452;2023-05-28T10:05:48;3.17;;;1.63;;
25331;SDS011;13284;52.748;13.452;2023-05-28T10:08:22;4.13;;;1.97;;
25331;SDS011;13284;52.748;13.452;2023-05-28T10:10:51;3.90;;;2.07;;
25331;SDS011;13284;52.748;13.452;2023-05-28T10:13:25;2.70;;;2.00;;
25331;SDS011;13284;52.748;13.452;2023-05-28T10:15:59;2.43;;;2.00;;
25331;SDS011;13284;52.748;13.452;2023-05-28T10:18:43;5.07;;;1.67;;
25331;SDS011;13284;52.748;13.452;2023-05-28T10:24:51;3.77;;;2.03;;
25331;SDS011;13284;52.748;13.452;2023-05-28T10:27:30;2.97;;;2.30;;
25331;SDS011;13284;52.748;13.452;2023-05-28T10:30:03;2.20;;;2.00;;
25331;SDS011;13284;52.748;13.452;2023-05-28T10:32:47;2.90;;;1.90;;
25331;SDS011;13284;52.748;13.452;2023-05-28T10:35:13;3.40;;;2.00;;
25331;SDS011;13284;52.748;13.452;2023-05-28T10:37:40;2.73;;;1.87;;
25331;SDS011;13284;52.748;13.452;2023-05-28T10:40:10;1.90;;;1.70;;
25331;SDS011;13284;52.748;13.452;2023-05-28T10:42:48;2.93;;;2.00;;
25331;SDS011;13284;52.748;13.452;2023-05-28T10:45:16;2.03;;;1.83;;
25331;SDS011;13284;52.748;13.452;2023-05-28T10:47:43;3.83;;;2.20;;
25331;SDS011;13284;52.748;13.452;2023-05-28T10:50:18;2.53;;;1.60;;
25331;SDS011;13284;52.748;13.452;2023-05-28T10:55:48;2.03;;;1.83;;
25331;SDS011;13284;52.748;13.452;2023-05-28T10:58:25;3.47;;;2.40;;
25331;SDS011;13284;52.748;13.452;2023-05-28T11:01:38;2.30;;;1.97;;
25331;SDS011;13284;52.748;13.452;2023-05-28T11:03:43;2.07;;;1.87;;
25331;SDS011;13284;52.748;13.452;2023-05-28T11:06:12;2.57;;;2.30;;
25331;SDS011;13284;52.748;13.452;2023-05-28T11:08:48;2.97;;;2.10;;
25331;SDS011;13284;52.748;13.452;2023-05-28T11:11:17;3.40;;;2.27;;
25331;SDS011;13284;52.748;13.452;2023-05-28T11:13:44;2.20;;;2.00;;
25331;SDS011;13284;52.748;13.452;2023-05-28T11:16:10;2.80;;;2.23;;
25331;SDS011;13284;52.748;13.452;2023-05-28T11:18:37;2.50;;;2.30;;
25331;SDS011;13284;52.748;13.452;2023-05-28T11:21:06;2.20;;;1.80;;
25331;SDS011;13284;52.748;13.452;2023-05-28T11:24:12;2.73;;;2.47;;
25331;SDS011;13284;52.748;13.452;2023-05-28T11:33:49;3.93;;;2.20;;
25331;SDS011;13284;52.748;13.452;2023-05-28T11:36:56;2.10;;;2.00;;
25331;SDS011;13284;52.748;13.452;2023-05-28T11:40:32;2.70;;;1.90;;
25331;SDS011;13284;52.748;13.452;2023-05-28T11:44:19;2.43;;;1.80;;
25331;SDS011;13284;52.748;13.452;2023-05-28T11:49:43;2.33;;;2.13;;
25331;SDS011;13284;52.748;13.452;2023-05-28T11:52:10;3.83;;;2.47;;
25331;SDS011;13284;52.748;13.452;2023-05-28T11:54:38;2.37;;;2.20;;
25331;SDS011;13284;52.748;13.452;2023-05-28T11:57:05;2.80;;;2.27;;
25331;SDS011;13284;52.748;13.452;2023-05-28T11:59:53;2.43;;;2.10;;
25331;SDS011;13284;52.748;13.452;2023-05-28T12:13:52;2.67;;;1.87;;
25331;SDS011;13284;52.748;13.452;2023-05-28T12:17:22;2.50;;;2.03;;
25331;SDS011;13284;52.748;13.452;2023-05-28T12:19:48;3.30;;;1.80;;
25331;SDS011;13284;52.748;13.452;2023-05-28T12:22:14;2.63;;;2.03;;
25331;SDS011;13284;52.748;13.452;2023-05-28T12:24:51;2.30;;;2.10;;
25331;SDS011;13284;52.748;13.452;2023-05-28T12:27:19;2.20;;;2.00;;
25331;SDS011;13284;52.748;13.452;2023-05-28T12:29:45;2.50;;;2.10;;
25331;SDS011;13284;52.748;13.452;2023-05-28T12:32:11;3.47;;;2.10;;
25331;SDS011;13284;52.748;13.452;2023-05-28T12:34:37;3.93;;;2.43;;
25331;SDS011;13284;52.748;13.452;2023-05-28T12:37:02;3.90;;;2.50;;
25331;SDS011;13284;52.748;13.452;2023-05-28T12:39:29;2.83;;;2.50;;
25331;SDS011;13284;52.748;13.452;2023-05-28T12:41:55;2.43;;;2.20;;
25331;SDS011;13284;52.748;13.452;2023-05-28T12:44:20;2.60;;;2.40;;
25331;SDS011;13284;52.748;13.452;2023-05-28T12:46:46;3.33;;;2.07;;
25331;SDS011;13284;52.748;13.452;2023-05-28T12:49:12;2.60;;;1.97;;
25331;SDS011;13284;52.748;13.452;2023-05-28T12:51:37;2.80;;;2.40;;
25331;SDS011;13284;52.748;13.452;2023-05-28T12:54:04;2.73;;;1.90;;
25331;SDS011;13284;52.748;13.452;2023-05-28T12:56:32;3.47;;;2.60;;
25331;SDS011;13284;52.748;13.452;2023-05-28T12:58:58;3.93;;;2.20;;
25331;SDS011;13284;52.748;13.452;2023-05-28T13:01:24;2.80;;;2.27;;
25331;SDS011;13284;52.748;13.452;2023-05-28T13:03:50;4.00;;;1.93;;
25331;SDS011;13284;52.748;13.452;2023-05-28T13:06:16;2.80;;;2.23;;
25331;SDS011;13284;52.748;13.452;2023-05-28T13:08:43;3.90;;;2.63;;
25331;SDS011;13284;52.748;13.452;2023-05-28T13:11:08;2.50;;;2.03;;
25331;SDS011;13284;52.748;13.452;2023-05-28T13:13:46;2.03;;;1.83;;
25331;SDS011;13284;52.748;13.452;2023-05-28T13:16:12;2.37;;;2.17;;
25331;SDS011;13284;52.748;13.452;2023-05-28T13:18:37;3.10;;;2.57;;
25331;SDS011;13284;52.748;13.452;2023-05-28T13:21:03;3.17;;;2.40;;
25331;SDS011;13284;52.748;13.452;2023-05-28T13:23:29;4.90;;;2.30;;
25331;SDS011;13284;52.748;13.452;2023-05-28T13:25:54;2.40;;;2.10;;
25331;SDS011;13284;52.748;13.452;2023-05-28T13:28:20;2.27;;;1.97;;
25331;SDS011;13284;52.748;13.452;2023-05-28T13:30:46;4.20;;;2.30;;
25331;SDS011;13284;52.748;13.452;2023-05-28T13:33:11;2.60;;;2.07;;
25331;SDS011;13284;52.748;13.452;2023-05-28T13:35:39;2.80;;;2.00;;
25331;SDS011;13284;52.748;13.452;2023-05-28T13:38:05;2.80;;;2.17;;
25331;SDS011;13284;52.748;13.452;2023-05-28T13:40:32;3.33;;;2.30;;
25331;SDS011;13284;52.748;13.452;2023-05-28T13:42:58;2.53;;;2.23;;
25331;SDS011;13284;52.748;13.452;2023-05-28T13:45:23;2.30;;;2.10;;
25331;SDS011;13284;52.748;13.452;2023-05-28T13:47:49;2.00;;;1.90;;
25331;SDS011;13284;52.748;13.452;2023-05-28T13:50:15;2.60;;;2.30;;
25331;SDS011;13284;52.748;13.452;2023-05-28T13:52:41;2.67;;;2.47;;
25331;SDS011;13284;52.748;13.452;2023-05-28T13:55:08;2.50;;;2.30;;
25331;SDS011;13284;52.748;13.452;2023-05-28T13:57:34;3.10;;;2.17;;
25331;SDS011;13284;52.748;13.452;2023-05-28T13:59:59;2.77;;;2.20;;
25331;SDS011;13284;52.748;13.452;2023-05-28T14:02:31;3.57;;;2.73;;
25331;SDS011;13284;52.748;13.452;2023-05-28T14:04:57;4.63;;;2.53;;
25331;SDS011;13284;52.748;13.452;2023-05-28T14:07:23;2.60;;;1.83;;
25331;SDS011;13284;52.748;13.452;2023-05-28T14:09:48;4.97;;;2.17;;
25331;SDS011;13284;52.748;13.452;2023-05-28T14:12:14;2.67;;;1.83;;
25331;SDS011;13284;52.748;13.452;2023-05-28T14:14:40;4.23;;;2.10;;
25331;SDS011;13284;52.748;13.452;2023-05-28T14:17:05;4.10;;;1.90;;
25331;SDS011;13284;52.748;13.452;2023-05-28T14:19:31;5.40;;;2.50;;
25331;SDS011;13284;52.748;13.452;2023-05-28T14:21:56;2.03;;;1.80;;
25331;SDS011;13284;52.748;13.452;2023-05-28T14:24:22;2.67;;;2.10;;
25331;SDS011;13284;52.748;13.452;2023-05-28T14:26:48;2.20;;;1.83;;
25331;SDS011;13284;52.748;13.452;2023-05-28T14:29:13;2.73;;;2.10;;
25331;SDS011;13284;52.748;13.452;2023-05-28T14:31:42;2.53;;;2.17;;
25331;SDS011;13284;52.748;13.452;2023-05-28T14:34:07;2.50;;;2.30;;
25331;SDS011;13284;52.748;13.452;2023-05-28T14:36:33;3.53;;;2.30;;
25331;SDS011;13284;52.748;13.452;2023-05-28T14:39:00;4.17;;;2.40;;
25331;SDS011;13284;52.748;13.452;2023-05-28T14:41:25;3.10;;;2.13;;
25331;SDS011;13284;52.748;13.452;2023-05-28T14:43:51;2.93;;;2.30;;
25331;SDS011;13284;52.748;13.452;2023-05-28T14:46:16;3.70;;;2.30;;
25331;SDS011;13284;52.748;13.452;2023-05-28T14:48:45;2.30;;;2.10;;
25331;SDS011;13284;52.748;13.452;2023-05-28T14:51:10;3.70;;;2.00;;
25331;SDS011;13284;52.748;13.452;2023-05-28T14:53:36;10.90;;;2.93;;
25331;SDS011;13284;52.748;13.452;2023-05-28T14:56:02;3.83;;;2.20;;
25331;SDS011;13284;52.748;13.452;2023-05-28T14:58:27;2.33;;;1.70;;
25331;SDS011;13284;52.748;13.452;2023-05-28T15:00:55;2.27;;;1.90;;
25331;SDS011;13284;52.748;13.452;2023-05-28T15:03:21;3.20;;;2.37;;
25331;SDS011;13284;52.748;13.452;2023-05-28T15:05:47;6.23;;;2.30;;
25331;SDS011;13284;52.748;13.452;2023-05-28T15:08:13;3.33;;;2.30;;
25331;SDS011;13284;52.748;13.452;2023-05-28T15:10:39;6.17;;;2.87;;
25331;SDS011;13284;52.748;13.452;2023-05-28T15:13:06;2.87;;;2.40;;
25331;SDS011;13284;52.748;13.452;2023-05-28T15:15:32;2.37;;;1.87;;